createdAt,value
2023-05-14T00:02:06.492Z,10.15
2023-05-14T00:04:33.726Z,11.52
2023-05-14T00:07:00.943Z,14.43
2023-05-14T00:09:28.053Z,11.75
2023-05-14T00:11:54.818Z,12.82
2023-05-14T00:14:22.016Z,10.07
2023-05-14T00:16:48.930Z,10.27
2023-05-14T00:19:15.970Z,10.32
2023-05-14T00:21:42.775Z,10.07
2023-05-14T00:24:09.868Z,11.77
2023-05-14T00:26:36.562Z,10.20
2023-05-14T00:29:03.553Z,11.02
2023-05-14T00:31:30.598Z,11.02
2023-05-14T00:33:57.622Z,11.25
2023-05-14T00:36:24.310Z,10.50
2023-05-14T00:38:51.383Z,12.07
2023-05-14T00:41:18.156Z,10.70
2023-05-14T00:43:45.363Z,10.65
2023-05-14T00:46:12.585Z,9.68
2023-05-14T00:48:39.669Z,11.88
2023-05-14T00:51:06.727Z,12.80
2023-05-14T00:53:33.838Z,13.05
2023-05-14T00:56:00.739Z,12.73
2023-05-14T00:58:27.713Z,11.05
2023-05-14T01:00:54.482Z,12.10
2023-05-14T01:03:21.627Z,11.40
2023-05-14T01:06:06.829Z,10.43
2023-05-14T01:08:59.596Z,9.07
2023-05-14T01:11:47.010Z,11.85
2023-05-14T01:14:21.617Z,11.50
2023-05-14T01:16:53.179Z,10.37
2023-05-14T01:19:43.988Z,11.02
2023-05-14T01:22:11.175Z,10.75
2023-05-14T01:24:38.232Z,13.65
2023-05-14T01:27:08.039Z,9.90
2023-05-14T01:29:35.469Z,11.07
2023-05-14T01:32:02.233Z,11.73
2023-05-14T01:34:29.261Z,9.57
2023-05-14T01:36:56.048Z,9.07
2023-05-14T01:39:23.252Z,9.93
2023-05-14T01:41:49.956Z,9.93
2023-05-14T01:44:17.171Z,10.07
2023-05-14T01:46:43.886Z,8.65
2023-05-14T01:49:10.954Z,9.93
2023-05-14T01:51:37.909Z,10.10
2023-05-14T01:54:05.010Z,12.13
2023-05-14T01:56:31.713Z,9.50
2023-05-14T01:58:58.705Z,11.18
2023-05-14T02:01:26.264Z,11.15
2023-05-14T02:03:53.351Z,10.10
2023-05-14T02:06:20.076Z,10.10
2023-05-14T02:08:47.136Z,11.80
2023-05-14T02:11:14.008Z,10.32
2023-05-14T02:13:41.140Z,8.80
2023-05-14T02:16:08.213Z,10.20
2023-05-14T02:18:35.409Z,9.70
2023-05-14T02:21:02.232Z,9.43
2023-05-14T02:23:40.512Z,8.55
2023-05-14T02:26:09.642Z,8.20
2023-05-14T02:28:36.844Z,9.93
2023-05-14T02:31:03.602Z,10.98
2023-05-14T02:33:30.852Z,9.00
2023-05-14T02:35:57.622Z,9.13
2023-05-14T02:38:25.724Z,10.88
2023-05-14T02:40:52.604Z,9.02
2023-05-14T02:43:19.629Z,11.70
2023-05-14T02:45:46.944Z,10.00
2023-05-14T02:48:14.221Z,8.27
2023-05-14T02:50:40.932Z,10.75
2023-05-14T02:53:08.736Z,9.77
2023-05-14T02:55:35.632Z,13.25
2023-05-14T02:58:02.654Z,10.13
2023-05-14T03:00:29.392Z,11.10
2023-05-14T03:02:56.806Z,10.20
2023-05-14T03:05:23.958Z,8.65
2023-05-14T03:07:53.754Z,11.23
2023-05-14T03:10:20.837Z,8.50
2023-05-14T03:12:47.958Z,8.63
2023-05-14T03:15:14.703Z,8.65
2023-05-14T03:17:41.847Z,8.75
2023-05-14T03:20:08.939Z,15.23
2023-05-14T03:22:35.906Z,10.38
2023-05-14T03:25:02.654Z,10.20
2023-05-14T03:27:29.613Z,9.77
2023-05-14T03:29:56.298Z,11.32
2023-05-14T03:32:23.369Z,12.57
2023-05-14T03:34:51.635Z,9.32
2023-05-14T03:37:18.629Z,9.13
2023-05-14T03:39:45.429Z,10.95
2023-05-14T03:42:12.627Z,10.98
2023-05-14T03:44:39.313Z,9.82
2023-05-14T03:47:06.356Z,11.45
2023-05-14T03:49:33.261Z,11.18
2023-05-14T03:52:00.371Z,10.05
2023-05-14T03:54:27.132Z,11.55
2023-05-14T03:56:54.174Z,14.15
2023-05-14T03:59:20.857Z,11.18
2023-05-14T04:01:47.933Z,13.55
2023-05-14T04:04:14.759Z,11.95
2023-05-14T04:06:41.814Z,12.10
2023-05-14T04:09:08.512Z,9.88
2023-05-14T04:11:35.570Z,13.68
2023-05-14T04:14:02.394Z,11.80
2023-05-14T04:16:29.501Z,11.75
2023-05-14T04:18:56.304Z,13.68
2023-05-14T04:21:23.346Z,13.23
2023-05-14T04:23:51.632Z,13.45
2023-05-14T04:26:18.648Z,15.98
2023-05-14T04:28:45.738Z,11.25
2023-05-14T04:31:12.832Z,11.32
2023-05-14T04:33:39.960Z,14.13
2023-05-14T04:36:07.267Z,13.95
2023-05-14T04:38:34.070Z,14.18
2023-05-14T04:41:01.051Z,12.73
2023-05-14T04:43:27.713Z,22.45
2023-05-14T04:45:54.789Z,11.30
2023-05-14T04:48:21.722Z,16.20
2023-05-14T04:50:48.758Z,17.73
2023-05-14T04:53:15.477Z,10.93
2023-05-14T04:55:42.512Z,10.15
2023-05-14T04:58:09.281Z,14.00
2023-05-14T05:00:36.374Z,10.57
2023-05-14T05:03:03.423Z,11.27
2023-05-14T05:05:30.695Z,14.68
2023-05-14T05:07:57.401Z,13.25
2023-05-14T05:10:24.714Z,12.98
2023-05-14T05:12:51.657Z,10.05
2023-05-14T05:15:18.680Z,13.18
2023-05-14T05:17:45.875Z,13.02
2023-05-14T05:20:13.364Z,15.40
2023-05-14T05:22:40.169Z,12.48
2023-05-14T05:25:09.075Z,12.43
2023-05-14T05:27:35.890Z,15.63
2023-05-14T05:30:04.021Z,12.20
2023-05-14T05:32:31.138Z,12.80
2023-05-14T05:34:58.219Z,12.20
2023-05-14T05:37:24.932Z,12.85
2023-05-14T05:39:52.039Z,12.07
2023-05-14T05:42:18.746Z,12.07
2023-05-14T05:44:45.866Z,13.23
2023-05-14T05:47:12.584Z,14.73
2023-05-14T05:49:39.570Z,11.23
2023-05-14T05:52:06.494Z,11.48
2023-05-14T05:54:33.728Z,10.80
2023-05-14T05:57:00.727Z,13.05
2023-05-14T05:59:27.788Z,14.77
2023-05-14T06:01:54.552Z,13.00
2023-05-14T06:04:21.680Z,10.57
2023-05-14T06:06:48.410Z,11.68
2023-05-14T06:09:16.031Z,14.40
2023-05-14T06:11:42.811Z,11.10
2023-05-14T06:14:09.844Z,13.57
2023-05-14T06:16:36.711Z,12.55
2023-05-14T06:19:03.799Z,11.73
2023-05-14T06:21:30.625Z,10.52
2023-05-14T06:23:57.670Z,12.63
2023-05-14T06:26:24.409Z,10.63
2023-05-14T06:28:51.439Z,9.52
2023-05-14T06:31:18.755Z,11.73
2023-05-14T06:33:45.745Z,10.25
2023-05-14T06:36:12.455Z,12.70
2023-05-14T06:38:39.505Z,11.43
2023-05-14T06:41:06.233Z,13.90
2023-05-14T06:43:33.307Z,11.68
2023-05-14T06:46:00.291Z,11.95
2023-05-14T06:48:29.447Z,8.93
2023-05-14T06:50:56.323Z,12.75
2023-05-14T06:53:23.408Z,11.05
2023-05-14T06:55:50.808Z,10.20
2023-05-14T06:58:17.860Z,13.00
2023-05-14T07:00:44.615Z,11.75
2023-05-14T07:03:11.672Z,8.98
2023-05-14T07:05:38.489Z,8.77
2023-05-14T07:08:05.692Z,9.45
2023-05-14T07:10:32.759Z,11.30
2023-05-14T07:12:59.747Z,8.55
2023-05-14T07:15:26.537Z,11.30
2023-05-14T07:17:53.587Z,8.40
2023-05-14T07:20:20.546Z,8.57
2023-05-14T07:22:48.410Z,7.13
2023-05-14T07:25:15.218Z,10.70
2023-05-14T07:27:42.208Z,7.57
2023-05-14T07:30:09.191Z,11.82
2023-05-14T07:32:36.190Z,8.85
2023-05-14T07:35:03.042Z,6.63
2023-05-14T07:37:30.129Z,7.50
2023-05-14T07:39:56.861Z,9.00
2023-05-14T07:42:35.027Z,8.40
2023-05-14T07:45:03.586Z,7.15
2023-05-14T07:47:30.830Z,7.70
2023-05-14T07:49:57.776Z,7.88
2023-05-14T07:52:24.977Z,7.40
2023-05-14T07:54:52.068Z,8.32
2023-05-14T07:57:19.869Z,6.90
2023-05-14T07:59:47.799Z,5.35
2023-05-14T08:02:16.225Z,6.15
2023-05-14T08:04:43.211Z,7.63
2023-05-14T08:07:10.332Z,5.93
2023-05-14T08:09:37.149Z,6.00
2023-05-14T08:12:04.498Z,5.75
2023-05-14T08:14:31.200Z,5.35
2023-05-14T08:16:58.355Z,5.28
2023-05-14T08:19:27.383Z,4.55
2023-05-14T08:21:54.627Z,5.35
2023-05-14T08:24:21.436Z,5.50
2023-05-14T08:26:48.528Z,4.53
2023-05-14T08:29:16.589Z,5.63
2023-05-14T08:31:44.060Z,5.60
2023-05-14T08:34:10.889Z,4.85
2023-05-14T08:36:38.828Z,6.03
2023-05-14T08:39:07.780Z,4.55
2023-05-14T08:41:35.045Z,4.53
2023-05-14T08:44:14.955Z,5.50
2023-05-14T08:46:42.009Z,7.35
2023-05-14T08:49:16.817Z,5.03
2023-05-14T08:54:17.784Z,5.18
2023-05-14T08:56:46.322Z,5.25
2023-05-14T08:59:13.320Z,4.55
2023-05-14T09:01:44.618Z,3.67
2023-05-14T09:04:11.547Z,4.45
2023-05-14T09:06:38.682Z,4.30
2023-05-14T09:09:05.930Z,3.65
2023-05-14T09:11:33.075Z,4.55
2023-05-14T09:13:59.836Z,3.95
2023-05-14T09:16:27.012Z,3.65
2023-05-14T09:18:54.330Z,3.97
2023-05-14T09:21:21.383Z,3.70
2023-05-14T09:23:49.774Z,3.97
2023-05-14T09:26:17.590Z,3.92
2023-05-14T09:28:44.338Z,3.88
2023-05-14T09:31:11.460Z,4.32
2023-05-14T09:33:38.194Z,3.70
2023-05-14T09:36:05.654Z,4.00
2023-05-14T09:38:32.837Z,4.50
2023-05-14T09:41:00.238Z,2.80
2023-05-14T09:43:26.942Z,3.90
2023-05-14T09:45:54.039Z,3.80
2023-05-14T09:48:22.443Z,3.90
2023-05-14T09:50:49.695Z,3.75
2023-05-14T09:53:17.695Z,3.88
2023-05-14T09:55:45.290Z,4.07
2023-05-14T09:58:14.403Z,3.33
2023-05-14T10:00:44.560Z,3.42
2023-05-14T10:03:13.259Z,3.42
2023-05-14T10:05:41.457Z,4.00
2023-05-14T10:08:35.225Z,5.18
2023-05-14T10:11:04.720Z,3.83
2023-05-14T10:13:33.673Z,5.20
2023-05-14T10:16:02.598Z,5.47
2023-05-14T10:18:31.190Z,5.32
2023-05-14T10:21:05.608Z,3.10
2023-05-14T10:23:32.759Z,3.17
2023-05-14T10:25:59.880Z,4.05
2023-05-14T10:28:27.145Z,2.85
2023-05-14T10:30:54.506Z,3.17
2023-05-14T10:33:21.367Z,3.55
2023-05-14T10:35:59.799Z,3.00
2023-05-14T10:38:33.684Z,3.42
2023-05-14T10:41:21.670Z,2.80
2023-05-14T10:43:48.445Z,7.03
2023-05-14T10:46:15.594Z,2.88
2023-05-14T10:48:43.225Z,3.13
2023-05-14T10:51:10.930Z,3.42
2023-05-14T10:53:39.571Z,3.05
2023-05-14T10:56:08.025Z,3.85
2023-05-14T10:58:38.449Z,5.07
2023-05-14T11:01:06.744Z,2.92
2023-05-14T11:03:38.560Z,5.95
2023-05-14T11:06:05.742Z,2.95
2023-05-14T11:08:32.448Z,3.28
2023-05-14T11:10:59.730Z,3.00
2023-05-14T11:13:26.682Z,4.32
2023-05-14T11:15:53.987Z,3.38
2023-05-14T11:18:31.036Z,2.70
2023-05-14T11:21:01.611Z,2.63
2023-05-14T11:23:28.679Z,3.13
2023-05-14T11:25:56.398Z,2.60
2023-05-14T11:28:23.631Z,3.20
2023-05-14T11:30:50.864Z,2.58
2023-05-14T11:33:17.872Z,2.58
2023-05-14T11:35:46.501Z,2.63
2023-05-14T11:38:19.496Z,2.63
2023-05-14T11:40:56.153Z,2.55
2023-05-14T11:43:23.875Z,2.97
2023-05-14T11:45:52.272Z,2.05
2023-05-14T11:48:19.965Z,3.65
2023-05-14T11:50:51.428Z,3.13
2023-05-14T11:53:29.707Z,1.70
2023-05-14T11:55:59.602Z,2.60
2023-05-14T11:58:26.435Z,2.33
2023-05-14T12:00:53.634Z,2.50
2023-05-14T12:03:26.412Z,2.97
2023-05-14T12:06:00.803Z,2.63
2023-05-14T12:08:31.383Z,2.63
2023-05-14T12:10:59.411Z,2.67
2023-05-14T12:13:29.846Z,1.80
2023-05-14T12:15:58.070Z,1.88
2023-05-14T12:18:25.690Z,1.90
2023-05-14T12:20:52.975Z,2.55
2023-05-14T12:23:46.213Z,2.53
2023-05-14T12:26:13.334Z,2.60
2023-05-14T12:28:43.649Z,2.00
2023-05-14T12:31:10.972Z,3.53
2023-05-14T12:33:37.800Z,2.55
2023-05-14T12:36:20.516Z,2.20
2023-05-14T12:38:47.823Z,2.67
2023-05-14T12:41:14.803Z,2.20
2023-05-14T12:43:44.793Z,1.92
2023-05-14T12:46:11.918Z,2.17
2023-05-14T12:48:38.636Z,2.10
2023-05-14T12:51:06.289Z,2.28
2023-05-14T12:53:33.935Z,2.20
2023-05-14T12:56:01.024Z,2.20
2023-05-14T12:58:27.755Z,1.65
2023-05-14T13:00:54.850Z,2.47
2023-05-14T13:03:21.690Z,2.05
2023-05-14T13:05:48.729Z,2.60
2023-05-14T13:08:17.820Z,1.67
2023-05-14T13:10:45.183Z,2.00
2023-05-14T13:13:11.974Z,2.08
2023-05-14T13:15:39.055Z,2.40
2023-05-14T13:18:05.981Z,2.03
2023-05-14T13:20:33.781Z,2.70
2023-05-14T13:23:00.694Z,2.15
2023-05-14T13:25:28.022Z,1.92
2023-05-14T13:27:55.166Z,2.00
2023-05-14T13:30:22.579Z,2.67
2023-05-14T13:32:49.458Z,1.80
2023-05-14T13:35:16.682Z,2.05
2023-05-14T13:37:43.729Z,2.67
2023-05-14T13:40:11.301Z,1.92
2023-05-14T13:42:39.883Z,1.77
2023-05-14T13:45:07.581Z,1.75
2023-05-14T13:47:34.442Z,1.88
2023-05-14T13:50:01.583Z,1.95
2023-05-14T13:52:28.462Z,1.58
2023-05-14T13:54:56.525Z,1.80
2023-05-14T13:57:23.371Z,2.40
2023-05-14T13:59:50.465Z,1.85
2023-05-14T14:02:17.831Z,4.18
2023-05-14T14:04:45.027Z,3.47
2023-05-14T14:07:11.840Z,3.30
2023-05-14T14:09:38.962Z,3.03
2023-05-14T14:12:06.227Z,2.10
2023-05-14T14:14:33.381Z,1.48
2023-05-14T14:17:00.158Z,2.13
2023-05-14T14:19:27.338Z,2.05
2023-05-14T14:21:54.184Z,2.72
2023-05-14T14:24:21.319Z,2.95
2023-05-14T14:26:48.694Z,1.85
2023-05-14T14:29:15.760Z,2.17
2023-05-14T14:31:44.507Z,1.50
2023-05-14T14:34:11.621Z,1.80
2023-05-14T14:36:38.464Z,2.30
2023-05-14T14:39:05.875Z,2.10
2023-05-14T14:41:32.626Z,1.80
2023-05-14T14:43:59.833Z,1.75
2023-05-14T14:46:27.025Z,1.70
2023-05-14T14:48:54.245Z,1.85
2023-05-14T14:51:21.190Z,1.67
2023-05-14T14:53:48.329Z,1.70
2023-05-14T14:56:15.688Z,1.90
2023-05-14T14:58:42.892Z,1.92
2023-05-14T15:01:09.818Z,1.90
2023-05-14T15:03:37.071Z,1.60
2023-05-14T15:06:04.182Z,1.60
2023-05-14T15:08:31.424Z,1.70
2023-05-14T15:10:59.371Z,1.63
2023-05-14T15:13:27.174Z,1.60
2023-05-14T15:15:54.070Z,2.03
2023-05-14T15:18:22.959Z,1.73
2023-05-14T15:20:50.048Z,1.92
2023-05-14T15:23:17.312Z,1.80
2023-05-14T15:25:44.355Z,2.10
2023-05-14T15:28:11.579Z,1.90
2023-05-14T15:30:38.417Z,2.67
2023-05-14T15:33:07.426Z,1.83
2023-05-14T15:35:34.278Z,1.65
2023-05-14T15:38:01.355Z,2.28
2023-05-14T15:40:28.247Z,2.00
2023-05-14T15:42:55.422Z,1.58
2023-05-14T15:45:22.259Z,1.58
2023-05-14T15:47:49.705Z,1.65
2023-05-14T15:50:16.466Z,1.65
2023-05-14T15:52:43.804Z,1.55
2023-05-14T15:55:10.878Z,2.08
2023-05-14T15:57:37.924Z,2.72
2023-05-14T16:00:14.426Z,2.17
2023-05-14T16:02:41.590Z,2.50
2023-05-14T16:05:08.738Z,2.10
2023-05-14T16:07:36.405Z,1.83
2023-05-14T16:10:03.652Z,1.80
2023-05-14T16:12:30.911Z,2.78
2023-05-14T16:14:57.800Z,1.67
2023-05-14T16:17:26.234Z,1.73
2023-05-14T16:19:54.646Z,2.13
2023-05-14T16:22:23.436Z,1.50
2023-05-14T16:24:50.206Z,1.73
2023-05-14T16:27:19.146Z,1.33
2023-05-14T16:29:46.059Z,1.75
2023-05-14T16:32:13.425Z,1.70
2023-05-14T16:34:40.663Z,1.90
2023-05-14T16:37:08.154Z,1.63
2023-05-14T16:39:34.960Z,1.73
2023-05-14T16:42:02.051Z,2.38
2023-05-14T16:44:30.249Z,2.08
2023-05-14T16:46:57.417Z,1.73
2023-05-14T16:49:24.357Z,1.90
2023-05-14T16:51:51.483Z,2.97
2023-05-14T16:54:18.331Z,1.77
2023-05-14T16:56:49.395Z,2.80
2023-05-14T16:59:16.472Z,1.90
2023-05-14T17:01:43.986Z,1.80
2023-05-14T17:04:10.888Z,2.70
2023-05-14T17:06:38.052Z,2.70
2023-05-14T17:09:05.267Z,2.53
2023-05-14T17:11:32.578Z,2.65
2023-05-14T17:13:59.276Z,3.78
2023-05-14T17:16:27.214Z,2.55
2023-05-14T17:18:56.519Z,2.25
2023-05-14T17:21:23.822Z,3.50
2023-05-14T17:23:50.783Z,2.45
2023-05-14T17:26:17.878Z,2.78
2023-05-14T17:28:46.204Z,3.35
2023-05-14T17:31:13.337Z,2.42
2023-05-14T17:33:40.237Z,2.53
2023-05-14T17:36:07.569Z,2.83
2023-05-14T17:38:34.796Z,3.85
2023-05-14T17:41:02.146Z,2.60
2023-05-14T17:43:29.044Z,2.65
2023-05-14T17:45:56.312Z,2.97
2023-05-14T17:48:24.122Z,3.08
2023-05-14T17:50:54.062Z,4.95
2023-05-14T17:53:21.190Z,9.00
2023-05-14T17:55:48.594Z,5.15
2023-05-14T17:58:16.221Z,8.25
2023-05-14T18:00:43.816Z,10.68
2023-05-14T18:03:11.314Z,8.23
2023-05-14T18:05:38.767Z,8.88
2023-05-14T18:08:06.777Z,6.20
2023-05-14T18:10:34.082Z,8.27
2023-05-14T18:13:00.944Z,8.30
2023-05-14T18:15:28.158Z,6.95
2023-05-14T18:17:55.086Z,8.90
2023-05-14T18:20:22.886Z,9.52
2023-05-14T18:22:50.723Z,10.73
2023-05-14T18:25:20.777Z,8.38
2023-05-14T18:27:48.193Z,9.15
2023-05-14T18:30:15.718Z,9.32
2023-05-14T18:32:44.173Z,8.85
2023-05-14T18:35:12.240Z,9.65
2023-05-14T18:37:39.343Z,8.65
2023-05-14T18:40:09.008Z,11.43
2023-05-14T18:42:36.118Z,9.27
2023-05-14T18:45:04.670Z,10.73
2023-05-14T18:47:33.384Z,9.23
2023-05-14T18:50:02.123Z,8.93
2023-05-14T18:52:29.336Z,9.73
2023-05-14T18:54:57.896Z,10.43
2023-05-14T18:57:26.176Z,11.60
2023-05-14T18:59:53.367Z,8.77
2023-05-14T19:02:21.512Z,9.80
2023-05-14T19:04:52.803Z,9.75
2023-05-14T19:07:25.103Z,9.18
2023-05-14T19:09:53.769Z,9.50
2023-05-14T19:12:21.800Z,9.50
2023-05-14T19:14:52.668Z,9.40
2023-05-14T19:17:21.670Z,10.65
2023-05-14T19:19:48.904Z,10.52
2023-05-14T19:22:15.814Z,10.70
2023-05-14T19:24:42.978Z,9.43
2023-05-14T19:27:10.095Z,8.75
2023-05-14T19:29:37.258Z,13.63
2023-05-14T19:32:06.208Z,11.07
2023-05-14T19:34:33.392Z,10.65
2023-05-14T19:37:00.614Z,12.52
2023-05-14T19:39:27.780Z,9.88
2023-05-14T19:41:54.653Z,9.73
2023-05-14T19:44:21.782Z,8.40
2023-05-14T19:46:48.746Z,11.63
2023-05-14T19:49:15.929Z,10.93
2023-05-14T19:51:42.862Z,12.10
2023-05-14T19:54:10.040Z,12.48
2023-05-14T19:56:36.913Z,11.50
2023-05-14T19:59:07.027Z,12.18
2023-05-14T20:01:34.846Z,11.93
2023-05-14T20:04:02.404Z,11.00
2023-05-14T20:06:29.969Z,11.27
2023-05-14T20:08:58.214Z,14.25
2023-05-14T20:11:24.986Z,12.60
2023-05-14T20:13:52.084Z,12.80
2023-05-14T20:16:19.034Z,11.65
2023-05-14T20:18:48.164Z,10.90
2023-05-14T20:21:15.007Z,13.70
2023-05-14T20:23:42.251Z,14.77
2023-05-14T20:26:09.223Z,10.48
2023-05-14T20:28:36.457Z,11.50
2023-05-14T20:31:04.141Z,13.80
2023-05-14T20:33:31.413Z,13.55
2023-05-14T20:35:58.330Z,13.23
2023-05-14T20:38:29.705Z,11.60
2023-05-14T20:40:56.556Z,11.90
2023-05-14T20:43:23.783Z,13.90
2023-05-14T20:45:50.596Z,12.50
2023-05-14T20:48:17.802Z,11.70
2023-05-14T20:50:44.699Z,13.95
2023-05-14T20:53:11.835Z,13.77
2023-05-14T20:55:41.229Z,13.77
2023-05-14T20:58:08.662Z,12.15
2023-05-14T21:00:35.465Z,11.43
2023-05-14T21:03:02.718Z,11.68
2023-05-14T21:05:29.661Z,10.60
2023-05-14T21:07:56.774Z,9.55
2023-05-14T21:10:23.946Z,11.10
2023-05-14T21:12:52.344Z,12.63
2023-05-14T21:15:19.108Z,10.50
2023-05-14T21:17:46.140Z,10.95
2023-05-14T21:20:15.429Z,10.13
2023-05-14T21:22:42.508Z,13.43
2023-05-14T21:25:09.703Z,9.45
2023-05-14T21:27:37.049Z,10.88
2023-05-14T21:30:04.077Z,9.27
2023-05-14T21:32:31.158Z,9.45
2023-05-14T21:34:57.959Z,9.55
2023-05-14T21:37:25.006Z,8.57
2023-05-14T21:39:51.697Z,9.82
2023-05-14T21:42:20.959Z,9.88
2023-05-14T21:44:47.807Z,11.32
2023-05-14T21:47:15.340Z,7.53
2023-05-14T21:49:42.476Z,8.48
2023-05-14T21:52:09.222Z,10.43
2023-05-14T21:54:36.232Z,10.63
2023-05-14T21:57:03.036Z,8.85
2023-05-14T21:59:30.031Z,9.43
2023-05-14T22:02:06.972Z,8.57
2023-05-14T22:04:35.359Z,7.47
2023-05-14T22:07:02.260Z,6.82
2023-05-14T22:09:30.387Z,9.18
2023-05-14T22:11:57.804Z,8.18
2023-05-14T22:14:26.564Z,8.07
2023-05-14T22:16:53.491Z,10.63
2023-05-14T22:19:20.543Z,7.93
2023-05-14T22:21:47.293Z,8.02
2023-05-14T22:24:14.346Z,7.53
2023-05-14T22:26:41.055Z,8.32
2023-05-14T22:29:08.123Z,7.45
2023-05-14T22:31:34.862Z,9.13
2023-05-14T22:34:01.866Z,5.72
2023-05-14T22:36:28.558Z,8.77
2023-05-14T22:38:55.652Z,6.18
2023-05-14T22:41:22.334Z,8.43
2023-05-14T22:43:49.502Z,6.30
2023-05-14T22:46:16.283Z,6.35
2023-05-14T22:48:43.376Z,6.82
2023-05-14T22:51:10.116Z,6.90
2023-05-14T22:53:37.185Z,8.50
2023-05-14T22:56:04.154Z,5.70
2023-05-14T22:58:31.169Z,6.68
2023-05-14T23:00:57.885Z,5.75
2023-05-14T23:03:24.908Z,7.07
2023-05-14T23:05:52.148Z,5.90
2023-05-14T23:08:19.226Z,6.07
2023-05-14T23:10:45.908Z,7.55
2023-05-14T23:13:12.932Z,5.15
2023-05-14T23:15:39.728Z,6.85
2023-05-14T23:18:07.807Z,5.10
2023-05-14T23:20:34.705Z,9.27
2023-05-14T23:23:01.722Z,4.68
2023-05-14T23:25:28.709Z,5.45
2023-05-14T23:27:55.769Z,5.32
2023-05-14T23:30:22.500Z,5.32
2023-05-14T23:32:49.602Z,4.70
2023-05-14T23:35:16.404Z,4.93
2023-05-14T23:37:47.208Z,5.65
2023-05-14T23:40:14.293Z,9.02
2023-05-14T23:42:41.376Z,4.28
2023-05-14T23:45:08.593Z,6.55
2023-05-14T23:47:35.782Z,5.80
2023-05-14T23:50:02.920Z,5.95
2023-05-14T23:52:29.897Z,5.30
2023-05-14T23:54:56.607Z,4.95
2023-05-14T23:57:23.573Z,5.75
2023-05-14T23:59:50.451Z,4.22
